sensor_id;sensor_type;location;lat;lon;timestamp;P1;durP1;ratioP1;P2;durP2;ratioP2
81714;SDS011;71125;44.066;2.982;2024-02-26T00:01:37;2.50;;;2.30;;
81714;SDS011;71125;44.066;2.982;2024-02-26T00:04:03;0.00;;;0.00;;
81714;SDS011;71125;44.066;2.982;2024-02-26T00:08:55;0.13;;;0.13;;
81714;SDS011;71125;44.066;2.982;2024-02-26T00:11:21;0.20;;;0.20;;
81714;SDS011;71125;44.066;2.982;2024-02-26T00:13:47;0.00;;;0.00;;
81714;SDS011;71125;44.066;2.982;2024-02-26T00:18:39;0.25;;;0.25;;
81714;SDS011;71125;44.066;2.982;2024-02-26T00:23:31;0.00;;;0.00;;
81714;SDS011;71125;44.066;2.982;2024-02-26T00:25:57;0.00;;;0.00;;
81714;SDS011;71125;44.066;2.982;2024-02-26T00:30:54;0.05;;;0.05;;
81714;SDS011;71125;44.066;2.982;2024-02-26T00:33:21;0.00;;;0.00;;
81714;SDS011;71125;44.066;2.982;2024-02-26T00:35:48;0.00;;;0.00;;
81714;SDS011;71125;44.066;2.982;2024-02-26T00:38:14;0.00;;;0.00;;
81714;SDS011;71125;44.066;2.982;2024-02-26T00:40:40;0.00;;;0.00;;
81714;SDS011;71125;44.066;2.982;2024-02-26T00:45:32;0.03;;;0.03;;
81714;SDS011;71125;44.066;2.982;2024-02-26T00:47:58;0.00;;;0.00;;
81714;SDS011;71125;44.066;2.982;2024-02-26T00:50:29;0.00;;;0.00;;
81714;SDS011;71125;44.066;2.982;2024-02-26T00:52:55;0.20;;;0.20;;
81714;SDS011;71125;44.066;2.982;2024-02-26T00:55:21;0.00;;;0.00;;
81714;SDS011;71125;44.066;2.982;2024-02-26T00:57:47;0.00;;;0.00;;
81714;SDS011;71125;44.066;2.982;2024-02-26T01:02:39;0.00;;;0.00;;
81714;SDS011;71125;44.066;2.982;2024-02-26T01:05:07;0.00;;;0.00;;
81714;SDS011;71125;44.066;2.982;2024-02-26T01:07:34;0.00;;;0.00;;
81714;SDS011;71125;44.066;2.982;2024-02-26T01:10:04;0.00;;;0.00;;
81714;SDS011;71125;44.066;2.982;2024-02-26T01:12:31;6.22;;;0.98;;
81714;SDS011;71125;44.066;2.982;2024-02-26T01:14:57;2.22;;;0.70;;
81714;SDS011;71125;44.066;2.982;2024-02-26T01:17:23;1.52;;;0.50;;
81714;SDS011;71125;44.066;2.982;2024-02-26T01:19:51;5.97;;;1.13;;
81714;SDS011;71125;44.066;2.982;2024-02-26T01:22:18;5.85;;;0.85;;
81714;SDS011;71125;44.066;2.982;2024-02-26T01:27:10;7.70;;;1.05;;
81714;SDS011;71125;44.066;2.982;2024-02-26T01:29:37;7.20;;;1.27;;
81714;SDS011;71125;44.066;2.982;2024-02-26T01:34:30;8.13;;;1.23;;
81714;SDS011;71125;44.066;2.982;2024-02-26T01:36:57;7.13;;;2.15;;
81714;SDS011;71125;44.066;2.982;2024-02-26T01:41:49;6.25;;;0.82;;
81714;SDS011;71125;44.066;2.982;2024-02-26T01:44:15;4.03;;;1.02;;
81714;SDS011;71125;44.066;2.982;2024-02-26T01:46:41;6.88;;;1.05;;
81714;SDS011;71125;44.066;2.982;2024-02-26T01:49:08;4.95;;;0.70;;
81714;SDS011;71125;44.066;2.982;2024-02-26T01:51:37;4.78;;;0.88;;
81714;SDS011;71125;44.066;2.982;2024-02-26T01:54:04;5.35;;;0.85;;
81714;SDS011;71125;44.066;2.982;2024-02-26T01:58:59;7.68;;;1.20;;
81714;SDS011;71125;44.066;2.982;2024-02-26T02:01:25;8.02;;;0.90;;
81714;SDS011;71125;44.066;2.982;2024-02-26T02:03:53;8.35;;;1.30;;
81714;SDS011;71125;44.066;2.982;2024-02-26T02:06:19;6.22;;;1.15;;
81714;SDS011;71125;44.066;2.982;2024-02-26T02:08:46;4.60;;;1.33;;
81714;SDS011;71125;44.066;2.982;2024-02-26T02:13:39;8.50;;;1.63;;
81714;SDS011;71125;44.066;2.982;2024-02-26T02:16:05;15.35;;;1.45;;
81714;SDS011;71125;44.066;2.982;2024-02-26T02:18:32;16.83;;;1.35;;
81714;SDS011;71125;44.066;2.982;2024-02-26T02:20:59;12.95;;;1.40;;
81714;SDS011;71125;44.066;2.982;2024-02-26T02:23:25;8.65;;;1.40;;
81714;SDS011;71125;44.066;2.982;2024-02-26T02:25:52;7.95;;;1.05;;
81714;SDS011;71125;44.066;2.982;2024-02-26T02:28:20;20.35;;;2.13;;
81714;SDS011;71125;44.066;2.982;2024-02-26T02:30:46;11.27;;;1.63;;
81714;SDS011;71125;44.066;2.982;2024-02-26T02:35:38;15.02;;;2.40;;
81714;SDS011;71125;44.066;2.982;2024-02-26T02:38:04;7.30;;;1.45;;
81714;SDS011;71125;44.066;2.982;2024-02-26T02:40:30;15.30;;;2.45;;
81714;SDS011;71125;44.066;2.982;2024-02-26T02:42:56;11.48;;;1.50;;
81714;SDS011;71125;44.066;2.982;2024-02-26T02:45:22;11.40;;;1.50;;
81714;SDS011;71125;44.066;2.982;2024-02-26T02:47:48;11.93;;;1.65;;
81714;SDS011;71125;44.066;2.982;2024-02-26T02:50:14;12.82;;;1.40;;
81714;SDS011;71125;44.066;2.982;2024-02-26T02:52:40;9.20;;;1.20;;
81714;SDS011;71125;44.066;2.982;2024-02-26T02:55:06;15.00;;;1.83;;
81714;SDS011;71125;44.066;2.982;2024-02-26T02:59:58;11.07;;;1.67;;
81714;SDS011;71125;44.066;2.982;2024-02-26T03:02:24;9.27;;;0.80;;
81714;SDS011;71125;44.066;2.982;2024-02-26T03:04:50;7.55;;;1.23;;
81714;SDS011;71125;44.066;2.982;2024-02-26T03:07:16;9.70;;;1.10;;
81714;SDS011;71125;44.066;2.982;2024-02-26T03:12:08;23.52;;;2.35;;
81714;SDS011;71125;44.066;2.982;2024-02-26T03:14:34;11.73;;;1.35;;
81714;SDS011;71125;44.066;2.982;2024-02-26T03:17:00;5.75;;;1.75;;
81714;SDS011;71125;44.066;2.982;2024-02-26T03:21:52;12.65;;;2.10;;
81714;SDS011;71125;44.066;2.982;2024-02-26T03:24:18;1.55;;;0.57;;
81714;SDS011;71125;44.066;2.982;2024-02-26T03:26:44;0.00;;;0.00;;
81714;SDS011;71125;44.066;2.982;2024-02-26T03:29:10;0.00;;;0.00;;
81714;SDS011;71125;44.066;2.982;2024-02-26T03:31:37;0.00;;;0.00;;
81714;SDS011;71125;44.066;2.982;2024-02-26T03:36:29;0.00;;;0.00;;
81714;SDS011;71125;44.066;2.982;2024-02-26T03:38:55;0.00;;;0.00;;
81714;SDS011;71125;44.066;2.982;2024-02-26T03:43:47;0.00;;;0.00;;
81714;SDS011;71125;44.066;2.982;2024-02-26T03:46:13;0.00;;;0.00;;
81714;SDS011;71125;44.066;2.982;2024-02-26T03:48:40;0.00;;;0.00;;
81714;SDS011;71125;44.066;2.982;2024-02-26T03:51:08;0.28;;;0.28;;
81714;SDS011;71125;44.066;2.982;2024-02-26T03:53:34;19.42;;;2.00;;
81714;SDS011;71125;44.066;2.982;2024-02-26T03:56:03;0.00;;;0.00;;
81714;SDS011;71125;44.066;2.982;2024-02-26T03:58:29;0.90;;;0.32;;
81714;SDS011;71125;44.066;2.982;2024-02-26T04:00:55;0.00;;;0.00;;
81714;SDS011;71125;44.066;2.982;2024-02-26T04:03:21;0.00;;;0.00;;
81714;SDS011;71125;44.066;2.982;2024-02-26T04:05:47;2.97;;;1.27;;
81714;SDS011;71125;44.066;2.982;2024-02-26T04:08:13;0.00;;;0.00;;
81714;SDS011;71125;44.066;2.982;2024-02-26T04:10:39;0.00;;;0.00;;
81714;SDS011;71125;44.066;2.982;2024-02-26T04:13:06;0.15;;;0.13;;
81714;SDS011;71125;44.066;2.982;2024-02-26T04:15:33;0.00;;;0.00;;
81714;SDS011;71125;44.066;2.982;2024-02-26T04:17:59;0.00;;;0.00;;
81714;SDS011;71125;44.066;2.982;2024-02-26T04:20:25;0.10;;;0.10;;
81714;SDS011;71125;44.066;2.982;2024-02-26T04:22:51;0.00;;;0.00;;
81714;SDS011;71125;44.066;2.982;2024-02-26T04:25:18;0.00;;;0.00;;
81714;SDS011;71125;44.066;2.982;2024-02-26T04:30:10;0.00;;;0.00;;
81714;SDS011;71125;44.066;2.982;2024-02-26T04:32:36;0.00;;;0.00;;
81714;SDS011;71125;44.066;2.982;2024-02-26T04:35:02;0.00;;;0.00;;
81714;SDS011;71125;44.066;2.982;2024-02-26T04:37:28;0.00;;;0.00;;
81714;SDS011;71125;44.066;2.982;2024-02-26T04:39:58;2.13;;;2.00;;
81714;SDS011;71125;44.066;2.982;2024-02-26T04:42:25;0.17;;;0.17;;
81714;SDS011;71125;44.066;2.982;2024-02-26T04:44:51;0.00;;;0.00;;
81714;SDS011;71125;44.066;2.982;2024-02-26T04:47:17;0.00;;;0.00;;
81714;SDS011;71125;44.066;2.982;2024-02-26T04:49:43;0.00;;;0.00;;
81714;SDS011;71125;44.066;2.982;2024-02-26T04:52:09;0.00;;;0.00;;
81714;SDS011;71125;44.066;2.982;2024-02-26T04:54:35;0.00;;;0.00;;
81714;SDS011;71125;44.066;2.982;2024-02-26T04:57:01;0.00;;;0.00;;
81714;SDS011;71125;44.066;2.982;2024-02-26T04:59:27;0.00;;;0.00;;
81714;SDS011;71125;44.066;2.982;2024-02-26T05:01:53;0.00;;;0.00;;
81714;SDS011;71125;44.066;2.982;2024-02-26T05:04:19;0.75;;;0.63;;
81714;SDS011;71125;44.066;2.982;2024-02-26T05:06:45;0.00;;;0.00;;
81714;SDS011;71125;44.066;2.982;2024-02-26T05:09:11;0.00;;;0.00;;
81714;SDS011;71125;44.066;2.982;2024-02-26T05:11:37;0.00;;;0.00;;
81714;SDS011;71125;44.066;2.982;2024-02-26T05:14:03;0.43;;;0.20;;
81714;SDS011;71125;44.066;2.982;2024-02-26T05:16:29;0.00;;;0.00;;
81714;SDS011;71125;44.066;2.982;2024-02-26T05:18:56;0.00;;;0.00;;
81714;SDS011;71125;44.066;2.982;2024-02-26T05:21:22;0.00;;;0.00;;
81714;SDS011;71125;44.066;2.982;2024-02-26T05:23:48;0.00;;;0.00;;
81714;SDS011;71125;44.066;2.982;2024-02-26T05:26:20;0.00;;;0.00;;
81714;SDS011;71125;44.066;2.982;2024-02-26T05:28:47;0.00;;;0.00;;
81714;SDS011;71125;44.066;2.982;2024-02-26T05:31:13;0.75;;;0.43;;
81714;SDS011;71125;44.066;2.982;2024-02-26T05:33:39;0.00;;;0.00;;
81714;SDS011;71125;44.066;2.982;2024-02-26T05:38:31;0.00;;;0.00;;
81714;SDS011;71125;44.066;2.982;2024-02-26T05:43:24;0.00;;;0.00;;
81714;SDS011;71125;44.066;2.982;2024-02-26T05:45:50;0.00;;;0.00;;
81714;SDS011;71125;44.066;2.982;2024-02-26T05:48:16;0.00;;;0.00;;
81714;SDS011;71125;44.066;2.982;2024-02-26T05:50:44;0.00;;;0.00;;
81714;SDS011;71125;44.066;2.982;2024-02-26T05:55:36;0.00;;;0.00;;
81714;SDS011;71125;44.066;2.982;2024-02-26T05:58:02;0.00;;;0.00;;
81714;SDS011;71125;44.066;2.982;2024-02-26T06:02:54;0.00;;;0.00;;
81714;SDS011;71125;44.066;2.982;2024-02-26T06:05:20;0.00;;;0.00;;
81714;SDS011;71125;44.066;2.982;2024-02-26T06:07:46;1.38;;;0.45;;
81714;SDS011;71125;44.066;2.982;2024-02-26T06:10:12;0.00;;;0.00;;
81714;SDS011;71125;44.066;2.982;2024-02-26T06:12:41;0.00;;;0.00;;
81714;SDS011;71125;44.066;2.982;2024-02-26T06:17:34;0.00;;;0.00;;
81714;SDS011;71125;44.066;2.982;2024-02-26T06:20:00;0.00;;;0.00;;
81714;SDS011;71125;44.066;2.982;2024-02-26T06:22:26;0.47;;;0.45;;
81714;SDS011;71125;44.066;2.982;2024-02-26T06:27:18;0.00;;;0.00;;
81714;SDS011;71125;44.066;2.982;2024-02-26T06:29:46;0.00;;;0.00;;
81714;SDS011;71125;44.066;2.982;2024-02-26T06:32:13;0.25;;;0.25;;
81714;SDS011;71125;44.066;2.982;2024-02-26T06:34:39;0.00;;;0.00;;
81714;SDS011;71125;44.066;2.982;2024-02-26T06:37:07;0.00;;;0.00;;
81714;SDS011;71125;44.066;2.982;2024-02-26T06:39:33;0.00;;;0.00;;
81714;SDS011;71125;44.066;2.982;2024-02-26T06:44:26;0.00;;;0.00;;
81714;SDS011;71125;44.066;2.982;2024-02-26T06:46:59;0.00;;;0.00;;
81714;SDS011;71125;44.066;2.982;2024-02-26T06:49:25;0.00;;;0.00;;
81714;SDS011;71125;44.066;2.982;2024-02-26T06:51:51;0.00;;;0.00;;
81714;SDS011;71125;44.066;2.982;2024-02-26T06:54:18;0.00;;;0.00;;
81714;SDS011;71125;44.066;2.982;2024-02-26T06:59:10;0.00;;;0.00;;
81714;SDS011;71125;44.066;2.982;2024-02-26T07:01:36;0.00;;;0.00;;
81714;SDS011;71125;44.066;2.982;2024-02-26T07:04:02;0.00;;;0.00;;
81714;SDS011;71125;44.066;2.982;2024-02-26T07:08:54;0.00;;;0.00;;
81714;SDS011;71125;44.066;2.982;2024-02-26T07:11:20;0.00;;;0.00;;
81714;SDS011;71125;44.066;2.982;2024-02-26T07:16:12;0.00;;;0.00;;
81714;SDS011;71125;44.066;2.982;2024-02-26T07:18:41;0.00;;;0.00;;
81714;SDS011;71125;44.066;2.982;2024-02-26T07:21:11;0.00;;;0.00;;
81714;SDS011;71125;44.066;2.982;2024-02-26T07:23:37;0.00;;;0.00;;
81714;SDS011;71125;44.066;2.982;2024-02-26T07:26:03;0.00;;;0.00;;
81714;SDS011;71125;44.066;2.982;2024-02-26T07:30:55;0.00;;;0.00;;
81714;SDS011;71125;44.066;2.982;2024-02-26T07:33:21;0.00;;;0.00;;
81714;SDS011;71125;44.066;2.982;2024-02-26T07:38:13;0.00;;;0.00;;
81714;SDS011;71125;44.066;2.982;2024-02-26T07:43:05;0.00;;;0.00;;
81714;SDS011;71125;44.066;2.982;2024-02-26T07:47:57;0.00;;;0.00;;
81714;SDS011;71125;44.066;2.982;2024-02-26T07:50:23;0.40;;;0.15;;
81714;SDS011;71125;44.066;2.982;2024-02-26T07:55:16;0.00;;;0.00;;
81714;SDS011;71125;44.066;2.982;2024-02-26T07:57:42;0.00;;;0.00;;
81714;SDS011;71125;44.066;2.982;2024-02-26T08:00:09;0.00;;;0.00;;
81714;SDS011;71125;44.066;2.982;2024-02-26T08:02:35;0.00;;;0.00;;
81714;SDS011;71125;44.066;2.982;2024-02-26T08:05:01;0.70;;;0.43;;
81714;SDS011;71125;44.066;2.982;2024-02-26T08:09:53;0.90;;;0.85;;
81714;SDS011;71125;44.066;2.982;2024-02-26T08:12:19;0.00;;;0.00;;
81714;SDS011;71125;44.066;2.982;2024-02-26T08:17:11;0.00;;;0.00;;
81714;SDS011;71125;44.066;2.982;2024-02-26T08:22:04;0.00;;;0.00;;
81714;SDS011;71125;44.066;2.982;2024-02-26T08:24:30;0.00;;;0.00;;
81714;SDS011;71125;44.066;2.982;2024-02-26T08:26:56;0.00;;;0.00;;
81714;SDS011;71125;44.066;2.982;2024-02-26T08:29:22;0.00;;;0.00;;
81714;SDS011;71125;44.066;2.982;2024-02-26T08:31:48;0.43;;;0.43;;
81714;SDS011;71125;44.066;2.982;2024-02-26T08:34:14;0.00;;;0.00;;
81714;SDS011;71125;44.066;2.982;2024-02-26T08:39:08;0.00;;;0.00;;
81714;SDS011;71125;44.066;2.982;2024-02-26T08:41:34;0.00;;;0.00;;
81714;SDS011;71125;44.066;2.982;2024-02-26T08:46:26;0.00;;;0.00;;
81714;SDS011;71125;44.066;2.982;2024-02-26T08:51:18;0.00;;;0.00;;
81714;SDS011;71125;44.066;2.982;2024-02-26T08:56:10;0.00;;;0.00;;
81714;SDS011;71125;44.066;2.982;2024-02-26T08:58:41;0.00;;;0.00;;
81714;SDS011;71125;44.066;2.982;2024-02-26T09:03:33;0.00;;;0.00;;
81714;SDS011;71125;44.066;2.982;2024-02-26T09:08:25;0.00;;;0.00;;
81714;SDS011;71125;44.066;2.982;2024-02-26T09:13:17;0.00;;;0.00;;
81714;SDS011;71125;44.066;2.982;2024-02-26T09:15:43;0.00;;;0.00;;
81714;SDS011;71125;44.066;2.982;2024-02-26T09:18:09;0.00;;;0.00;;
81714;SDS011;71125;44.066;2.982;2024-02-26T09:20:35;0.00;;;0.00;;
81714;SDS011;71125;44.066;2.982;2024-02-26T09:25:28;0.00;;;0.00;;
81714;SDS011;71125;44.066;2.982;2024-02-26T09:30:20;0.00;;;0.00;;
81714;SDS011;71125;44.066;2.982;2024-02-26T09:35:15;0.00;;;0.00;;
81714;SDS011;71125;44.066;2.982;2024-02-26T09:40:09;0.00;;;0.00;;
81714;SDS011;71125;44.066;2.982;2024-02-26T09:42:41;0.00;;;0.00;;
81714;SDS011;71125;44.066;2.982;2024-02-26T09:45:09;0.00;;;0.00;;
81714;SDS011;71125;44.066;2.982;2024-02-26T09:47:37;3.92;;;1.13;;
81714;SDS011;71125;44.066;2.982;2024-02-26T09:50:04;0.00;;;0.00;;
81714;SDS011;71125;44.066;2.982;2024-02-26T09:52:32;0.00;;;0.00;;
81714;SDS011;71125;44.066;2.982;2024-02-26T09:54:59;0.00;;;0.00;;
81714;SDS011;71125;44.066;2.982;2024-02-26T09:57:25;0.00;;;0.00;;
81714;SDS011;71125;44.066;2.982;2024-02-26T09:59:53;0.00;;;0.00;;
81714;SDS011;71125;44.066;2.982;2024-02-26T10:02:19;0.38;;;0.32;;
81714;SDS011;71125;44.066;2.982;2024-02-26T10:04:46;0.00;;;0.00;;
81714;SDS011;71125;44.066;2.982;2024-02-26T10:07:16;0.00;;;0.00;;
81714;SDS011;71125;44.066;2.982;2024-02-26T10:09:42;0.40;;;0.40;;
81714;SDS011;71125;44.066;2.982;2024-02-26T10:12:11;0.00;;;0.00;;
81714;SDS011;71125;44.066;2.982;2024-02-26T10:14:37;1.20;;;1.10;;
81714;SDS011;71125;44.066;2.982;2024-02-26T10:17:04;0.00;;;0.00;;
81714;SDS011;71125;44.066;2.982;2024-02-26T10:19:33;0.00;;;0.00;;
81714;SDS011;71125;44.066;2.982;2024-02-26T10:22:00;0.00;;;0.00;;
81714;SDS011;71125;44.066;2.982;2024-02-26T10:24:27;0.63;;;0.43;;
81714;SDS011;71125;44.066;2.982;2024-02-26T10:26:54;2.65;;;0.45;;
81714;SDS011;71125;44.066;2.982;2024-02-26T10:29:21;0.00;;;0.00;;
81714;SDS011;71125;44.066;2.982;2024-02-26T10:31:47;0.08;;;0.08;;
81714;SDS011;71125;44.066;2.982;2024-02-26T10:34:16;0.00;;;0.00;;
81714;SDS011;71125;44.066;2.982;2024-02-26T10:36:42;0.00;;;0.00;;
81714;SDS011;71125;44.066;2.982;2024-02-26T10:39:09;0.10;;;0.10;;
81714;SDS011;71125;44.066;2.982;2024-02-26T10:41:35;0.00;;;0.00;;
81714;SDS011;71125;44.066;2.982;2024-02-26T10:44:01;0.00;;;0.00;;
81714;SDS011;71125;44.066;2.982;2024-02-26T10:46:28;0.00;;;0.00;;
81714;SDS011;71125;44.066;2.982;2024-02-26T10:48:54;0.00;;;0.00;;
81714;SDS011;71125;44.066;2.982;2024-02-26T10:51:20;0.00;;;0.00;;
81714;SDS011;71125;44.066;2.982;2024-02-26T10:53:48;0.00;;;0.00;;
81714;SDS011;71125;44.066;2.982;2024-02-26T10:56:18;0.00;;;0.00;;
81714;SDS011;71125;44.066;2.982;2024-02-26T10:58:45;0.10;;;0.00;;
81714;SDS011;71125;44.066;2.982;2024-02-26T11:01:12;0.00;;;0.00;;
81714;SDS011;71125;44.066;2.982;2024-02-26T11:03:38;0.00;;;0.00;;
81714;SDS011;71125;44.066;2.982;2024-02-26T11:06:05;0.00;;;0.00;;
81714;SDS011;71125;44.066;2.982;2024-02-26T11:08:31;0.00;;;0.00;;
81714;SDS011;71125;44.066;2.982;2024-02-26T11:10:57;0.00;;;0.00;;
81714;SDS011;71125;44.066;2.982;2024-02-26T11:13:26;0.00;;;0.00;;
81714;SDS011;71125;44.066;2.982;2024-02-26T11:15:52;0.00;;;0.00;;
81714;SDS011;71125;44.066;2.982;2024-02-26T11:18:20;0.47;;;0.20;;
81714;SDS011;71125;44.066;2.982;2024-02-26T11:23:31;0.00;;;0.00;;
81714;SDS011;71125;44.066;2.982;2024-02-26T11:25:59;0.00;;;0.00;;
81714;SDS011;71125;44.066;2.982;2024-02-26T11:28:26;0.00;;;0.00;;
81714;SDS011;71125;44.066;2.982;2024-02-26T11:30:53;0.00;;;0.00;;
81714;SDS011;71125;44.066;2.982;2024-02-26T11:33:19;0.08;;;0.08;;
81714;SDS011;71125;44.066;2.982;2024-02-26T11:35:45;2.20;;;0.50;;
81714;SDS011;71125;44.066;2.982;2024-02-26T11:38:21;0.00;;;0.00;;
81714;SDS011;71125;44.066;2.982;2024-02-26T11:40:48;0.20;;;0.20;;
81714;SDS011;71125;44.066;2.982;2024-02-26T11:43:14;0.45;;;0.32;;
81714;SDS011;71125;44.066;2.982;2024-02-26T11:48:15;0.00;;;0.00;;
81714;SDS011;71125;44.066;2.982;2024-02-26T11:50:43;0.00;;;0.00;;
81714;SDS011;71125;44.066;2.982;2024-02-26T11:53:21;0.00;;;0.00;;
81714;SDS011;71125;44.066;2.982;2024-02-26T11:55:48;0.10;;;0.10;;
81714;SDS011;71125;44.066;2.982;2024-02-26T11:58:14;0.00;;;0.00;;
81714;SDS011;71125;44.066;2.982;2024-02-26T12:00:40;0.00;;;0.00;;
81714;SDS011;71125;44.066;2.982;2024-02-26T12:03:06;0.00;;;0.00;;
81714;SDS011;71125;44.066;2.982;2024-02-26T12:05:34;0.00;;;0.00;;
81714;SDS011;71125;44.066;2.982;2024-02-26T12:08:05;0.00;;;0.00;;
81714;SDS011;71125;44.066;2.982;2024-02-26T12:10:37;0.55;;;0.47;;
81714;SDS011;71125;44.066;2.982;2024-02-26T12:13:16;0.00;;;0.00;;
81714;SDS011;71125;44.066;2.982;2024-02-26T12:18:09;0.00;;;0.00;;
81714;SDS011;71125;44.066;2.982;2024-02-26T12:20:38;0.00;;;0.00;;
81714;SDS011;71125;44.066;2.982;2024-02-26T12:23:04;1.17;;;0.20;;
81714;SDS011;71125;44.066;2.982;2024-02-26T12:25:31;0.00;;;0.00;;
81714;SDS011;71125;44.066;2.982;2024-02-26T12:27:58;0.10;;;0.10;;
81714;SDS011;71125;44.066;2.982;2024-02-26T12:30:24;0.63;;;0.25;;
81714;SDS011;71125;44.066;2.982;2024-02-26T12:32:51;0.00;;;0.00;;
81714;SDS011;71125;44.066;2.982;2024-02-26T12:35:21;0.00;;;0.00;;
81714;SDS011;71125;44.066;2.982;2024-02-26T12:37:47;0.20;;;0.10;;
81714;SDS011;71125;44.066;2.982;2024-02-26T12:40:14;0.00;;;0.00;;
81714;SDS011;71125;44.066;2.982;2024-02-26T12:42:40;0.00;;;0.00;;
81714;SDS011;71125;44.066;2.982;2024-02-26T12:45:07;0.00;;;0.00;;
81714;SDS011;71125;44.066;2.982;2024-02-26T12:47:44;0.63;;;0.30;;
81714;SDS011;71125;44.066;2.982;2024-02-26T12:50:16;0.00;;;0.00;;
81714;SDS011;71125;44.066;2.982;2024-02-26T12:52:46;0.00;;;0.00;;
81714;SDS011;71125;44.066;2.982;2024-02-26T12:55:13;2.22;;;0.40;;
81714;SDS011;71125;44.066;2.982;2024-02-26T12:57:41;0.20;;;0.20;;
81714;SDS011;71125;44.066;2.982;2024-02-26T13:00:14;0.00;;;0.00;;
81714;SDS011;71125;44.066;2.982;2024-02-26T13:02:41;0.00;;;0.00;;
81714;SDS011;71125;44.066;2.982;2024-02-26T13:05:10;0.00;;;0.00;;
81714;SDS011;71125;44.066;2.982;2024-02-26T13:07:43;0.50;;;0.13;;
81714;SDS011;71125;44.066;2.982;2024-02-26T13:10:10;0.32;;;0.32;;
81714;SDS011;71125;44.066;2.982;2024-02-26T13:12:45;0.00;;;0.00;;
81714;SDS011;71125;44.066;2.982;2024-02-26T13:15:18;0.00;;;0.00;;
81714;SDS011;71125;44.066;2.982;2024-02-26T13:17:45;0.00;;;0.00;;
81714;SDS011;71125;44.066;2.982;2024-02-26T13:20:11;0.00;;;0.00;;
81714;SDS011;71125;44.066;2.982;2024-02-26T13:22:37;0.00;;;0.00;;
81714;SDS011;71125;44.066;2.982;2024-02-26T13:25:03;0.00;;;0.00;;
81714;SDS011;71125;44.066;2.982;2024-02-26T13:27:32;0.13;;;0.13;;
81714;SDS011;71125;44.066;2.982;2024-02-26T13:30:05;0.10;;;0.10;;
81714;SDS011;71125;44.066;2.982;2024-02-26T13:32:32;0.28;;;0.15;;
81714;SDS011;71125;44.066;2.982;2024-02-26T13:35:31;0.05;;;0.05;;
81714;SDS011;71125;44.066;2.982;2024-02-26T13:37:51;0.00;;;0.00;;
81714;SDS011;71125;44.066;2.982;2024-02-26T13:40:17;0.10;;;0.10;;
81714;SDS011;71125;44.066;2.982;2024-02-26T13:42:44;0.10;;;0.03;;
81714;SDS011;71125;44.066;2.982;2024-02-26T13:45:10;0.00;;;0.00;;
81714;SDS011;71125;44.066;2.982;2024-02-26T13:47:36;0.00;;;0.00;;
81714;SDS011;71125;44.066;2.982;2024-02-26T13:50:02;0.00;;;0.00;;
81714;SDS011;71125;44.066;2.982;2024-02-26T13:52:29;0.00;;;0.00;;
81714;SDS011;71125;44.066;2.982;2024-02-26T13:54:57;0.00;;;0.00;;
81714;SDS011;71125;44.066;2.982;2024-02-26T13:57:24;0.00;;;0.00;;
81714;SDS011;71125;44.066;2.982;2024-02-26T13:59:50;0.00;;;0.00;;
81714;SDS011;71125;44.066;2.982;2024-02-26T14:02:18;1.67;;;1.55;;
81714;SDS011;71125;44.066;2.982;2024-02-26T14:04:47;0.00;;;0.00;;
81714;SDS011;71125;44.066;2.982;2024-02-26T14:07:13;0.00;;;0.00;;
81714;SDS011;71125;44.066;2.982;2024-02-26T14:09:39;0.25;;;0.25;;
81714;SDS011;71125;44.066;2.982;2024-02-26T14:12:06;0.00;;;0.00;;
81714;SDS011;71125;44.066;2.982;2024-02-26T14:14:33;0.00;;;0.00;;
81714;SDS011;71125;44.066;2.982;2024-02-26T14:17:03;0.00;;;0.00;;
81714;SDS011;71125;44.066;2.982;2024-02-26T14:19:29;0.00;;;0.00;;
81714;SDS011;71125;44.066;2.982;2024-02-26T14:21:55;0.00;;;0.00;;
81714;SDS011;71125;44.066;2.982;2024-02-26T14:24:21;0.00;;;0.00;;
81714;SDS011;71125;44.066;2.982;2024-02-26T14:26:49;0.00;;;0.00;;
81714;SDS011;71125;44.066;2.982;2024-02-26T14:29:15;0.00;;;0.00;;
81714;SDS011;71125;44.066;2.982;2024-02-26T14:31:41;0.00;;;0.00;;
81714;SDS011;71125;44.066;2.982;2024-02-26T14:34:07;1.35;;;0.68;;
81714;SDS011;71125;44.066;2.982;2024-02-26T14:36:34;0.17;;;0.15;;
81714;SDS011;71125;44.066;2.982;2024-02-26T14:39:00;0.00;;;0.00;;
81714;SDS011;71125;44.066;2.982;2024-02-26T14:41:26;0.00;;;0.00;;
81714;SDS011;71125;44.066;2.982;2024-02-26T14:43:52;0.40;;;0.40;;
81714;SDS011;71125;44.066;2.982;2024-02-26T14:46:18;0.00;;;0.00;;
81714;SDS011;71125;44.066;2.982;2024-02-26T14:48:44;0.00;;;0.00;;
81714;SDS011;71125;44.066;2.982;2024-02-26T14:51:10;0.00;;;0.00;;
81714;SDS011;71125;44.066;2.982;2024-02-26T14:53:36;0.00;;;0.00;;
81714;SDS011;71125;44.066;2.982;2024-02-26T14:56:02;0.00;;;0.00;;
81714;SDS011;71125;44.066;2.982;2024-02-26T14:58:28;0.00;;;0.00;;
81714;SDS011;71125;44.066;2.982;2024-02-26T15:00:54;0.00;;;0.00;;
81714;SDS011;71125;44.066;2.982;2024-02-26T15:03:20;0.00;;;0.00;;
81714;SDS011;71125;44.066;2.982;2024-02-26T15:05:46;0.00;;;0.00;;
81714;SDS011;71125;44.066;2.982;2024-02-26T15:08:12;0.00;;;0.00;;
81714;SDS011;71125;44.066;2.982;2024-02-26T15:10:41;0.00;;;0.00;;
81714;SDS011;71125;44.066;2.982;2024-02-26T15:13:13;0.00;;;0.00;;
81714;SDS011;71125;44.066;2.982;2024-02-26T15:15:40;0.00;;;0.00;;
81714;SDS011;71125;44.066;2.982;2024-02-26T15:18:07;0.00;;;0.00;;
81714;SDS011;71125;44.066;2.982;2024-02-26T15:20:34;0.00;;;0.00;;
81714;SDS011;71125;44.066;2.982;2024-02-26T15:23:00;0.00;;;0.00;;
81714;SDS011;71125;44.066;2.982;2024-02-26T15:25:26;0.00;;;0.00;;
81714;SDS011;71125;44.066;2.982;2024-02-26T15:27:52;0.00;;;0.00;;
81714;SDS011;71125;44.066;2.982;2024-02-26T15:30:18;0.00;;;0.00;;
81714;SDS011;71125;44.066;2.982;2024-02-26T15:32:45;0.00;;;0.00;;
81714;SDS011;71125;44.066;2.982;2024-02-26T15:35:11;0.00;;;0.00;;
81714;SDS011;71125;44.066;2.982;2024-02-26T15:37:37;0.00;;;0.00;;
81714;SDS011;71125;44.066;2.982;2024-02-26T15:40:03;0.00;;;0.00;;
81714;SDS011;71125;44.066;2.982;2024-02-26T15:42:32;0.22;;;0.20;;
81714;SDS011;71125;44.066;2.982;2024-02-26T15:44:58;0.00;;;0.00;;
81714;SDS011;71125;44.066;2.982;2024-02-26T15:47:24;0.00;;;0.00;;
81714;SDS011;71125;44.066;2.982;2024-02-26T15:49:50;0.00;;;0.00;;
81714;SDS011;71125;44.066;2.982;2024-02-26T15:52:16;0.00;;;0.00;;
81714;SDS011;71125;44.066;2.982;2024-02-26T15:54:42;0.00;;;0.00;;
81714;SDS011;71125;44.066;2.982;2024-02-26T15:57:08;0.10;;;0.00;;
81714;SDS011;71125;44.066;2.982;2024-02-26T15:59:37;0.00;;;0.00;;
81714;SDS011;71125;44.066;2.982;2024-02-26T16:02:03;0.00;;;0.00;;
81714;SDS011;71125;44.066;2.982;2024-02-26T16:04:29;0.65;;;0.28;;
81714;SDS011;71125;44.066;2.982;2024-02-26T16:06:57;0.00;;;0.00;;
81714;SDS011;71125;44.066;2.982;2024-02-26T16:09:24;0.15;;;0.15;;
81714;SDS011;71125;44.066;2.982;2024-02-26T16:11:50;0.20;;;0.10;;
81714;SDS011;71125;44.066;2.982;2024-02-26T16:16:44;0.00;;;0.00;;
81714;SDS011;71125;44.066;2.982;2024-02-26T16:19:13;0.10;;;0.10;;
81714;SDS011;71125;44.066;2.982;2024-02-26T16:21:39;1.35;;;1.08;;
81714;SDS011;71125;44.066;2.982;2024-02-26T16:24:05;0.00;;;0.00;;
81714;SDS011;71125;44.066;2.982;2024-02-26T16:26:31;0.00;;;0.00;;
81714;SDS011;71125;44.066;2.982;2024-02-26T16:28:57;0.00;;;0.00;;
81714;SDS011;71125;44.066;2.982;2024-02-26T16:31:23;0.00;;;0.00;;
81714;SDS011;71125;44.066;2.982;2024-02-26T16:33:50;0.00;;;0.00;;
81714;SDS011;71125;44.066;2.982;2024-02-26T16:36:16;0.00;;;0.00;;
81714;SDS011;71125;44.066;2.982;2024-02-26T16:38:42;0.00;;;0.00;;
81714;SDS011;71125;44.066;2.982;2024-02-26T16:41:08;0.00;;;0.00;;
81714;SDS011;71125;44.066;2.982;2024-02-26T16:43:34;0.00;;;0.00;;
81714;SDS011;71125;44.066;2.982;2024-02-26T16:46:01;0.00;;;0.00;;
81714;SDS011;71125;44.066;2.982;2024-02-26T16:48:31;0.10;;;0.00;;
81714;SDS011;71125;44.066;2.982;2024-02-26T16:50:59;0.00;;;0.00;;